Time;durP1;ratioP1;P1;durP2;ratioP2;P2;SDS_P1;SDS_P2;PMS_P1;PMS_P2;Temp;Humidity;BMP_temperature;BMP_pressure;BME280_temperature;BME280_humidity;BME280_pressure;Samples;Min_cycle;Max_cycle;Signal;HPM_P1;HPM_P2
2021/12/06 00:02:12;;;;;;;61.63;25.10;;;;;;;3.41;95.62;101215.97;5054303;28;20041;-42
2021/12/06 00:04:38;;;;;;;53.08;23.45;;;;;;;3.50;95.27;101227.66;5049433;28;20075;-42
2021/12/06 00:07:09;;;;;;;56.35;24.77;;;;;;;3.52;94.49;101218.56;5053463;28;20116;-42
2021/12/06 00:09:35;;;;;;;51.50;24.15;;;;;;;3.54;94.44;101221.13;5054357;28;20036;-40
2021/12/06 00:12:02;;;;;;;49.35;22.45;;;;;;;3.53;94.68;101219.44;5053851;28;20044;-41
2021/12/06 00:14:30;;;;;;;57.63;24.80;;;;;;;3.59;94.41;101212.78;5054181;28;20037;-40
2021/12/06 00:17:02;;;;;;;50.67;23.73;;;;;;;3.60;94.40;101217.94;5054371;28;20386;-41
2021/12/06 00:19:28;;;;;;;52.95;24.50;;;;;;;3.64;94.20;101221.22;5053648;28;20025;-41
2021/12/06 00:21:55;;;;;;;53.65;23.45;;;;;;;3.60;94.44;101225.94;5054183;28;20040;-41
2021/12/06 00:24:21;;;;;;;51.97;23.70;;;;;;;3.65;94.03;101239.69;5054210;28;20032;-41
2021/12/06 00:26:46;;;;;;;54.53;24.77;;;;;;;3.67;94.14;101237.75;5052580;28;20287;-41
2021/12/06 00:29:12;;;;;;;51.10;24.02;;;;;;;3.68;94.20;101228.78;5053985;28;20035;-42
2021/12/06 00:31:37;;;;;;;50.75;24.35;;;;;;;3.71;93.93;101233.88;5053992;28;20052;-41
2021/12/06 00:34:08;;;;;;;62.38;25.67;;;;;;;3.65;94.07;101237.03;5053407;28;20116;-41
2021/12/06 00:36:37;;;;;;;52.10;23.27;;;;;;;3.65;94.22;101234.38;5053587;28;20100;-41
2021/12/06 00:39:06;;;;;;;54.00;24.17;;;;;;;3.65;94.44;101244.19;5053853;28;20451;-42
2021/12/06 00:41:32;;;;;;;54.08;23.98;;;;;;;3.66;94.70;101251.19;5053638;28;20025;-41
2021/12/06 00:44:00;;;;;;;57.90;25.45;;;;;;;3.64;94.14;101248.69;5052441;28;20029;-41
2021/12/06 00:46:25;;;;;;;;;;;;;;;3.59;94.08;101248.22;5053792;28;20460;-42
2021/12/06 00:48:50;;;;;;;56.97;24.90;;;;;;;3.61;94.16;101256.91;5053777;28;19940;-41
2021/12/06 00:51:16;;;;;;;55.33;24.08;;;;;;;3.67;94.35;101259.06;5053187;28;20477;-41
2021/12/06 00:53:42;;;;;;;53.83;25.25;;;;;;;3.73;94.20;101269.19;5052937;28;20029;-41
2021/12/06 00:56:08;;;;;;;57.08;25.73;;;;;;;3.71;94.18;101268.50;5086037;28;20029;-41
2021/12/06 00:58:34;;;;;;;54.38;24.50;;;;;;;3.72;93.66;101266.69;5053098;28;20048;-41
2021/12/06 01:00:59;;;;;;;56.38;23.90;;;;;;;3.72;93.38;101278.16;5053335;28;20033;-41
2021/12/06 01:03:31;;;;;;;54.28;24.15;;;;;;;3.76;93.54;101275.25;5053246;28;20500;-41
2021/12/06 01:05:57;;;;;;;51.63;24.70;;;;;;;3.73;93.27;101297.63;5053233;28;20425;-41
2021/12/06 01:08:24;;;;;;;54.13;24.85;;;;;;;3.77;93.48;101295.59;5053026;28;20120;-41
2021/12/06 01:10:50;;;;;;;57.60;24.83;;;;;;;3.83;93.26;101287.09;5057053;28;20029;-41
2021/12/06 01:13:16;;;;;;;55.15;25.27;;;;;;;3.83;93.29;101290.59;5054871;28;20545;-41
2021/12/06 01:15:42;;;;;;;52.75;25.30;;;;;;;3.86;92.96;101300.13;5053018;28;20530;-41
2021/12/06 01:18:10;;;;;;;54.92;25.15;;;;;;;3.81;92.57;101305.00;5052516;28;20025;-41
2021/12/06 01:20:44;;;;;;;53.60;25.63;;;;;;;3.84;92.96;101302.91;5053007;28;20039;-41
2021/12/06 01:23:13;;;;;;;53.92;26.08;;;;;;;3.85;92.62;101295.78;5053818;28;20025;-42
2021/12/06 01:41:33;;;;;;;59.83;26.63;;;;;;;3.76;92.43;101323.16;5052433;28;20040;-41
2021/12/06 01:44:28;;;;;;;60.85;26.95;;;;;;;3.73;92.55;101319.78;5051978;28;20025;-41
2021/12/06 01:46:57;;;;;;;57.85;26.75;;;;;;;3.76;92.56;101317.84;5050006;28;20132;-41
2021/12/06 01:49:25;;;;;;;60.35;28.00;;;;;;;3.73;92.34;101311.78;5084381;28;20037;-41
2021/12/06 01:51:51;;;;;;;57.15;27.17;;;;;;;3.74;92.58;101312.66;5051181;28;20108;-41
2021/12/06 01:54:17;;;;;;;60.78;28.38;;;;;;;3.76;92.56;101312.50;5051855;28;20017;-41
2021/12/06 01:56:43;;;;;;;61.50;28.38;;;;;;;3.76;92.72;101309.84;5050862;28;20021;-41
2021/12/06 01:59:09;;;;;;;65.20;28.30;;;;;;;3.71;92.79;101311.09;5052178;28;20037;-41
2021/12/06 02:01:34;;;;;;;60.35;28.98;;;;;;;3.72;92.70;101309.28;5052469;28;20361;-41
2021/12/06 02:04:00;;;;;;;56.70;26.73;;;;;;;3.70;92.58;101311.19;5051326;28;20492;-41
2021/12/06 02:06:27;;;;;;;64.05;29.27;;;;;;;3.77;92.24;101301.75;5052101;28;20506;-41
2021/12/06 02:08:53;;;;;;;66.53;28.70;;;;;;;3.76;92.21;101302.69;5052083;28;20389;-41
2021/12/06 02:11:19;;;;;;;58.53;28.40;;;;;;;3.73;92.39;101306.47;5050415;28;20033;-42
2021/12/06 02:16:43;;;;;;;63.95;29.38;;;;;;;3.82;92.23;101298.69;5051109;28;20124;-41
2021/12/06 02:19:10;;;;;;;59.50;30.05;;;;;;;3.79;91.72;101298.94;5051368;28;20044;-40
2021/12/06 02:21:40;;;;;;;69.30;30.35;;;;;;;3.85;91.75;101298.47;5051753;28;20025;-42
2021/12/06 02:24:08;;;;;;;64.40;28.95;;;;;;;3.88;91.51;101295.53;5052310;28;20400;-41
2021/12/06 02:26:35;;;;;;;58.03;29.27;;;;;;;3.88;90.90;101292.88;5050143;28;20373;-41
2021/12/06 02:29:00;;;;;;;58.50;28.30;;;;;;;3.79;91.43;101298.94;5051701;28;20115;-41
2021/12/06 02:31:26;;;;;;;59.30;28.40;;;;;;;3.72;91.71;101299.47;5051999;28;20099;-41
2021/12/06 02:33:51;;;;;;;62.97;29.73;;;;;;;3.68;92.16;101300.66;5051802;28;20033;-41
2021/12/06 02:36:19;;;;;;;58.85;28.85;;;;;;;3.68;92.59;101292.69;5051714;28;20021;-41
2021/12/06 02:38:44;;;;;;;59.00;28.35;;;;;;;3.67;92.03;101301.66;5051761;28;20021;-41
2021/12/06 02:41:11;;;;;;;62.38;29.10;;;;;;;3.69;92.33;101298.88;5050367;28;20024;-41
2021/12/06 02:43:37;;;;;;;69.22;29.38;;;;;;;3.66;92.41;101302.63;5051467;28;20025;-41
2021/12/06 02:46:03;;;;;;;63.05;29.83;;;;;;;3.62;92.51;101303.00;5051218;28;20384;-41
2021/12/06 02:48:29;;;;;;;64.47;29.17;;;;;;;3.60;92.17;101297.78;5050582;28;20024;-41
2021/12/06 02:50:56;;;;;;;68.80;30.58;;;;;;;3.50;92.14;101299.50;5051573;28;20104;-41
2021/12/06 02:53:26;;;;;;;59.58;27.58;;;;;;;3.40;91.92;101299.44;5051310;28;20171;-41
2021/12/06 02:55:54;;;;;;;67.22;30.40;;;;;;;3.32;92.54;101301.88;5053721;28;20033;-42
2021/12/06 02:58:46;;;;;;;65.13;30.10;;;;;;;3.22;93.16;101300.91;5053987;28;20029;-41
2021/12/06 03:01:27;;;;;;;70.10;30.20;;;;;;;3.14;93.18;101292.72;5055521;28;20382;-42
2021/12/06 03:03:53;;;;;;;74.72;29.90;;;;;;;3.04;93.42;101298.75;5055051;28;20120;-41
2021/12/06 03:06:20;;;;;;;84.00;31.73;;;;;;;2.96;93.23;101305.66;5055121;28;20086;-41
2021/12/06 03:08:59;;;;;;;78.60;32.27;;;;;;;2.92;93.99;101309.50;5054132;28;20059;-42
2021/12/06 03:11:29;;;;;;;71.70;32.53;;;;;;;2.84;94.24;101308.31;5054182;28;20032;-41
2021/12/06 03:13:55;;;;;;;79.85;32.55;;;;;;;2.80;94.08;101304.19;5054790;28;20041;-43
2021/12/06 03:16:20;;;;;;;84.47;32.78;;;;;;;2.77;95.14;101307.09;5055047;28;20032;-42
2021/12/06 03:18:48;;;;;;;83.95;32.80;;;;;;;2.70;94.48;101311.19;5055200;28;20104;-41
2021/12/06 03:21:15;;;;;;;75.80;32.08;;;;;;;2.61;94.31;101310.09;5055175;28;20405;-41
2021/12/06 03:23:40;;;;;;;79.90;31.50;;;;;;;2.55;94.70;101307.91;5054545;28;20056;-41
2021/12/06 03:26:06;;;;;;;76.90;31.73;;;;;;;2.50;94.74;101314.53;5054727;28;20493;-42
2021/12/06 03:28:36;;;;;;;77.72;30.33;;;;;;;2.44;94.66;101301.72;5054881;28;20503;-42
2021/12/06 03:31:03;;;;;;;69.13;28.88;;;;;;;2.41;94.33;101306.31;5054410;28;20527;-42
2021/12/06 03:33:28;;;;;;;82.30;31.30;;;;;;;2.41;94.46;101306.31;5054501;28;20021;-42
2021/12/06 03:35:53;;;;;;;74.47;31.52;;;;;;;2.36;94.45;101313.78;5054466;28;20033;-42
2021/12/06 03:38:19;;;;;;;78.13;31.63;;;;;;;2.32;94.92;101317.66;5054172;28;20029;-42
2021/12/06 03:40:44;;;;;;;80.57;34.10;;;;;;;2.29;94.97;101317.00;5054519;28;20044;-40
2021/12/06 03:43:09;;;;;;;84.63;31.15;;;;;;;2.23;95.04;101322.81;5053103;28;20472;-40
2021/12/06 03:45:36;;;;;;;91.18;35.47;;;;;;;2.20;95.75;101319.41;5053440;28;20025;-41
2021/12/06 03:48:01;;;;;;;85.32;32.28;;;;;;;2.15;95.79;101331.34;5033280;28;20021;-41
2021/12/06 03:50:27;;;;;;;85.35;32.88;;;;;;;2.12;96.07;101334.25;5033312;28;20021;-42
2021/12/06 03:52:52;;;;;;;77.47;30.17;;;;;;;2.09;96.20;101337.13;5044723;28;20025;-41
2021/12/06 03:55:17;;;;;;;81.18;31.27;;;;;;;2.07;95.73;101334.56;5053215;28;20455;-41
2021/12/06 03:57:43;;;;;;;79.22;30.90;;;;;;;2.02;96.44;101335.88;5086500;28;20029;-41
2021/12/06 04:00:09;;;;;;;84.63;32.22;;;;;;;1.97;95.46;101338.88;5054439;28;20052;-41
2021/12/06 04:02:35;;;;;;;82.32;30.63;;;;;;;1.92;95.83;101325.97;5053716;28;20033;-41
2021/12/06 04:05:00;;;;;;;82.78;30.88;;;;;;;1.93;96.26;101326.81;5053108;28;20381;-41
2021/12/06 04:07:25;;;;;;;84.90;31.73;;;;;;;1.92;96.07;101331.28;5053552;28;20029;-41
2021/12/06 04:09:51;;;;;;;87.22;32.50;;;;;;;1.87;96.04;101330.78;5054115;28;20040;-41
2021/12/06 04:12:16;;;;;;;92.88;33.38;;;;;;;1.88;96.42;101329.78;5053857;28;20110;-41
2021/12/06 04:14:43;;;;;;;95.72;33.60;;;;;;;1.86;96.40;101334.38;5052764;28;20492;-41
2021/12/06 04:17:09;;;;;;;88.85;33.53;;;;;;;1.85;96.85;101339.81;5085953;28;20043;-41
2021/12/06 04:19:35;;;;;;;93.50;33.67;;;;;;;1.86;96.81;101336.19;5054186;28;20029;-41
2021/12/06 04:22:00;;;;;;;91.03;33.35;;;;;;;1.88;96.84;101351.03;5052779;28;20059;-41
2021/12/06 04:24:26;;;;;;;83.13;32.25;;;;;;;1.81;96.94;101352.44;5052677;28;20039;-41
2021/12/06 04:26:51;;;;;;;77.22;32.20;;;;;;;1.81;96.93;101349.78;5062910;28;20044;-41
2021/12/06 04:29:17;;;;;;;80.38;32.63;;;;;;;1.78;96.04;101355.31;5055128;28;20507;-41
2021/12/06 04:31:51;;;;;;;80.75;31.35;;;;;;;1.74;95.60;101351.22;5053729;28;20380;-41
2021/12/06 04:34:18;;;;;;;91.22;33.90;;;;;;;1.74;95.61;101348.56;5052358;28;20039;-41
2021/12/06 04:36:45;;;;;;;85.50;31.50;;;;;;;1.74;96.46;101349.41;5053322;28;20025;-42
2021/12/06 04:39:15;;;;;;;85.40;31.08;;;;;;;1.77;96.73;101350.97;5053614;28;20099;-41
2021/12/06 04:41:41;;;;;;;80.82;32.13;;;;;;;1.74;96.52;101344.09;5053855;28;20029;-44
2021/12/06 04:44:06;;;;;;;74.97;30.67;;;;;;;1.68;96.26;101338.38;5085472;28;20060;-41
2021/12/06 04:46:32;;;;;;;81.38;30.67;;;;;;;1.66;95.47;101330.53;5051611;28;20048;-41
2021/12/06 04:48:58;;;;;;;81.78;30.17;;;;;;;1.66;95.79;101324.38;5053316;28;20063;-41
2021/12/06 04:51:24;;;;;;;78.90;31.73;;;;;;;1.64;96.53;101328.97;5053301;28;20052;-41
2021/12/06 04:53:51;;;;;;;86.93;33.40;;;;;;;1.64;96.59;101331.59;5053342;28;20029;-41
2021/12/06 04:56:36;;;;;;;88.13;32.00;;;;;;;1.60;96.82;101324.81;5053047;28;20060;-42
2021/12/06 04:59:13;;;;;;;83.13;30.52;;;;;;;1.54;95.96;101320.81;5053225;28;20829;-42
2021/12/06 05:01:38;;;;;;;84.07;30.35;;;;;;;1.49;96.05;101323.78;5052532;28;20120;-41
2021/12/06 05:04:09;;;;;;;81.25;31.27;;;;;;;1.48;96.58;101338.03;5053501;28;20082;-41
2021/12/06 05:06:37;;;;;;;87.88;32.15;;;;;;;1.48;96.54;101340.69;5051933;28;20021;-41
2021/12/06 05:09:13;;;;;;;82.97;30.83;;;;;;;1.47;96.48;101346.06;5085716;28;20052;-41
2021/12/06 05:11:40;;;;;;;91.53;32.70;;;;;;;1.45;96.59;101337.38;5053643;28;20068;-41
2021/12/06 05:14:06;;;;;;;98.22;32.53;;;;;;;1.44;96.67;101343.66;5053034;28;20045;-42
2021/12/06 05:16:33;;;;;;;94.18;33.55;;;;;;;1.43;96.73;101341.97;5052860;28;20029;-41
2021/12/06 05:18:59;;;;;;;92.60;31.77;;;;;;;1.39;97.20;101340.47;5052877;28;20021;-41
2021/12/06 05:21:25;;;;;;;93.88;32.45;;;;;;;1.35;96.26;101345.16;5052987;28;20465;-41
2021/12/06 05:23:51;;;;;;;94.93;32.38;;;;;;;1.29;96.23;101348.25;5053106;28;20029;-41
2021/12/06 05:26:16;;;;;;;82.07;31.42;;;;;;;1.27;96.25;101353.69;5052492;28;20387;-41
2021/12/06 05:28:44;;;;;;;94.05;33.55;;;;;;;1.25;96.68;101354.75;5052782;28;20025;-41
2021/12/06 05:31:15;;;;;;;99.97;33.67;;;;;;;1.26;96.31;101353.78;5051298;28;20056;-42
2021/12/06 05:33:46;;;;;;;92.35;33.45;;;;;;;1.23;96.68;101354.00;5052922;28;20017;-41
2021/12/06 05:36:12;;;;;;;88.82;32.55;;;;;;;1.21;96.75;101355.91;5051507;28;20107;-41
2021/12/06 05:38:37;;;;;;;87.63;29.92;;;;;;;1.24;96.48;101355.72;5052367;28;20116;-41
2021/12/06 05:41:02;;;;;;;94.05;32.00;;;;;;;1.22;95.86;101352.31;5084826;28;20021;-40
2021/12/06 05:43:28;;;;;;;95.53;33.08;;;;;;;1.21;96.43;101362.06;5052690;28;20040;-40
2021/12/06 05:45:53;;;;;;;103.93;34.63;;;;;;;1.20;96.36;101351.56;5052354;28;20040;-41
2021/12/06 05:48:19;;;;;;;98.00;34.08;;;;;;;1.21;96.90;101361.19;5044419;28;20040;-41
2021/12/06 05:50:46;;;;;;;94.15;33.53;;;;;;;1.19;96.69;101352.53;5032737;28;20033;-41
2021/12/06 05:53:13;;;;;;;90.90;32.08;;;;;;;1.19;96.88;101348.06;5048462;28;20035;-41
2021/12/06 05:55:38;;;;;;;99.53;33.15;;;;;;;1.24;96.91;101353.06;5052172;28;20119;-40
2021/12/06 05:58:05;;;;;;;99.10;34.25;;;;;;;1.29;97.30;101353.53;5051432;28;20028;-41
2021/12/06 06:00:32;;;;;;;96.43;33.15;;;;;;;1.36;97.22;101354.81;5049198;28;20025;-41
2021/12/06 06:03:00;;;;;;;108.40;35.50;;;;;;;1.49;97.33;101358.28;5043738;28;20029;-41
2021/12/06 06:05:25;;;;;;;124.70;38.33;;;;;;;1.67;97.80;101366.72;5052136;28;20029;-41
2021/12/06 06:07:51;;;;;;;118.75;39.15;;;;;;;1.80;98.19;101369.31;5051672;28;20029;-41
2021/12/06 06:10:17;;;;;;;120.18;40.53;;;;;;;1.88;97.95;101364.31;5052364;28;20053;-41
2021/12/06 06:12:42;;;;;;;137.98;42.13;;;;;;;2.00;98.37;101365.19;5050778;28;20404;-42
2021/12/06 06:15:09;;;;;;;121.55;40.92;;;;;;;2.10;98.26;101366.19;5050249;28;20446;-41
2021/12/06 06:17:40;;;;;;;125.55;37.97;;;;;;;2.11;98.58;101364.41;5052108;28;20485;-40
2021/12/06 06:20:10;;;;;;;125.32;38.58;;;;;;;2.15;98.05;101363.22;5052238;28;20029;-41
2021/12/06 06:22:35;;;;;;;118.65;38.42;;;;;;;2.17;98.39;101358.63;5052091;28;20036;-41
2021/12/06 06:25:01;;;;;;;167.73;39.90;;;;;;;2.24;98.43;101362.53;5051463;28;20025;-41
2021/12/06 06:27:26;;;;;;;336.95;41.03;;;;;;;2.21;98.23;101368.06;5051824;28;20036;-41
2021/12/06 06:29:51;;;;;;;380.40;38.45;;;;;;;2.06;97.47;101379.84;5054503;28;20568;-40
2021/12/06 06:32:17;;;;;;;491.85;41.05;;;;;;;1.94;97.86;101378.94;5056180;28;20392;-41
2021/12/06 06:34:42;;;;;;;431.67;43.88;;;;;;;1.90;98.05;101377.47;5054881;28;20029;-41
2021/12/06 06:37:07;;;;;;;449.58;44.63;;;;;;;1.79;98.38;101388.00;5055904;28;20112;-41
2021/12/06 06:39:33;;;;;;;456.88;46.63;;;;;;;1.86;98.59;101383.94;5054662;28;20025;-41
2021/12/06 06:41:58;;;;;;;291.60;40.63;;;;;;;1.82;98.62;101393.09;5054042;28;20100;-41
2021/12/06 06:44:24;;;;;;;429.58;46.35;;;;;;;1.83;98.28;101390.31;5055791;28;20037;-41
2021/12/06 06:46:49;;;;;;;415.20;40.13;;;;;;;1.79;98.69;101396.84;5087972;28;20112;-41
2021/12/06 06:49:16;;;;;;;397.10;43.78;;;;;;;1.81;98.25;101392.25;5055669;28;20021;-41
2021/12/06 06:51:42;;;;;;;456.05;49.42;;;;;;;1.83;98.92;101390.31;5055402;28;20037;-41
2021/12/06 06:54:08;;;;;;;490.52;47.88;;;;;;;1.79;98.85;101388.88;5037575;28;20345;-40
2021/12/06 06:56:34;;;;;;;331.17;42.35;;;;;;;1.86;99.05;101384.78;5054186;28;20115;-41
2021/12/06 06:58:59;;;;;;;443.25;44.70;;;;;;;1.86;99.70;101376.81;5054200;28;20025;-41
2021/12/06 07:01:25;;;;;;;291.15;44.85;;;;;;;1.89;98.96;101376.59;5052604;28;20021;-41
2021/12/06 07:03:53;;;;;;;400.38;44.92;;;;;;;1.83;99.42;101378.88;5055089;28;20040;-41
2021/12/06 07:06:25;;;;;;;361.00;46.72;;;;;;;1.86;99.71;101363.56;5052757;28;20072;-41
2021/12/06 07:08:51;;;;;;;565.63;49.70;;;;;;;1.73;99.82;101371.56;5054342;28;20076;-41
2021/12/06 07:11:17;;;;;;;362.83;45.17;;;;;;;1.76;99.93;101357.22;5054406;28;20071;-41
2021/12/06 07:13:43;;;;;;;565.00;49.50;;;;;;;1.79;100.00;101362.34;5053629;28;20107;-41
2021/12/06 07:16:09;;;;;;;534.33;49.45;;;;;;;1.78;100.00;101359.78;5054861;28;20114;-41
2021/12/06 07:18:35;;;;;;;412.85;46.78;;;;;;;1.81;99.85;101355.09;5054484;28;20029;-42
2021/12/06 07:21:01;;;;;;;339.48;45.55;;;;;;;1.89;99.82;101347.41;5039776;28;20155;-42
2021/12/06 07:23:27;;;;;;;394.40;47.50;;;;;;;1.88;100.00;101345.72;5047406;28;20040;-42
2021/12/06 07:25:52;;;;;;;381.92;49.40;;;;;;;1.83;100.00;101345.22;5053014;28;20609;-41
2021/12/06 07:28:18;;;;;;;351.77;46.58;;;;;;;1.80;99.68;101345.44;5055094;28;20033;-42
2021/12/06 07:30:43;;;;;;;266.08;48.28;;;;;;;1.85;100.00;101342.47;5055073;28;20131;-42
2021/12/06 07:33:08;;;;;;;303.92;50.67;;;;;;;1.84;100.00;101344.25;5054469;28;20155;-42
2021/12/06 07:35:34;;;;;;;216.52;50.55;;;;;;;1.97;99.99;101353.03;5086423;28;20067;-42
2021/12/06 07:38:05;;;;;;;287.42;47.05;;;;;;;1.97;100.00;101360.09;5052961;28;20492;-42
2021/12/06 07:40:31;;;;;;;307.30;49.40;;;;;;;1.94;100.00;101361.19;5052866;28;20463;-40
2021/12/06 07:42:57;;;;;;;294.85;46.25;;;;;;;1.96;100.00;101353.97;5052444;28;20037;-42
2021/12/06 07:45:22;;;;;;;270.92;46.40;;;;;;;1.94;99.91;101355.88;5054197;28;20024;-42
2021/12/06 07:47:48;;;;;;;235.15;47.60;;;;;;;1.93;100.00;101348.88;5054376;28;20048;-42
2021/12/06 07:50:16;;;;;;;325.65;55.13;;;;;;;1.94;100.00;101350.56;5052608;28;20037;-42
2021/12/06 07:52:42;;;;;;;316.02;50.00;;;;;;;1.96;100.00;101353.13;5052999;28;20120;-41
2021/12/06 07:55:12;;;;;;;277.92;46.70;;;;;;;1.97;100.00;101350.38;5054114;28;20029;-42
2021/12/06 07:57:37;;;;;;;262.38;51.40;;;;;;;2.07;100.00;101358.47;5051477;28;20088;-40
2021/12/06 08:00:07;;;;;;;250.73;48.67;;;;;;;2.08;100.00;101352.22;5052878;28;20032;-41
2021/12/06 08:02:32;;;;;;;238.13;51.33;;;;;;;2.12;100.00;101353.66;5048943;28;20021;-42
2021/12/06 08:05:29;;;;;;;246.30;51.08;;;;;;;2.21;100.00;101368.06;5049148;28;20032;-42
2021/12/06 08:07:45;;;;;;;247.82;49.85;;;;;;;2.24;100.00;101367.84;5050573;28;20043;-41
2021/12/06 08:10:11;;;;;;;219.65;49.80;;;;;;;2.27;100.00;101380.91;5048419;28;20025;-42
2021/12/06 08:12:36;;;;;;;255.15;51.50;;;;;;;2.30;100.00;101380.66;5049226;28;20064;-42
2021/12/06 08:15:03;;;;;;;271.45;50.70;;;;;;;2.26;100.00;101396.94;5048626;28;20063;-43
2021/12/06 08:17:29;;;;;;;240.65;51.60;;;;;;;2.29;100.00;101396.69;5049091;28;20048;-41
2021/12/06 08:19:54;;;;;;;206.32;47.38;;;;;;;2.19;100.00;101393.91;5050225;28;20021;-41
2021/12/06 08:22:19;;;;;;;223.27;48.05;;;;;;;2.21;100.00;101389.28;5050374;28;20032;-42
2021/12/06 08:24:45;;;;;;;227.00;47.20;;;;;;;2.19;100.00;101388.59;5049007;28;20098;-42
2021/12/06 08:27:10;;;;;;;207.55;46.42;;;;;;;2.26;100.00;101381.84;5049369;28;21442;-41
2021/12/06 08:29:36;;;;;;;218.48;52.00;;;;;;;2.30;100.00;101393.94;5047620;28;20021;-42
2021/12/06 08:32:01;;;;;;;201.80;49.42;;;;;;;2.33;100.00;101383.09;5046845;28;20040;-41
2021/12/06 08:34:26;;;;;;;197.27;50.97;;;;;;;2.32;99.79;101372.59;5052317;28;20032;-42
2021/12/06 08:36:52;;;;;;;211.45;52.90;;;;;;;2.39;99.40;101374.63;5053195;28;20028;-42
2021/12/06 08:39:17;;;;;;;206.63;51.38;;;;;;;2.39;99.80;101371.97;5052452;28;20029;-42
2021/12/06 08:41:43;;;;;;;217.60;51.17;;;;;;;2.47;99.73;101379.38;5052939;28;20039;-43
2021/12/06 08:44:08;;;;;;;216.20;53.38;;;;;;;2.55;99.89;101370.81;5053252;28;20032;-42
2021/12/06 08:46:37;;;;;;;211.73;52.17;;;;;;;2.58;99.84;101371.47;5084301;28;20847;-42
2021/12/06 08:49:05;;;;;;;201.68;52.75;;;;;;;2.55;99.01;101366.34;5064734;28;20115;-42
2021/12/06 08:51:36;;;;;;;215.07;54.40;;;;;;;2.60;98.84;101360.69;5054721;28;20041;-42
2021/12/06 08:54:03;;;;;;;203.85;54.88;;;;;;;2.58;98.39;101349.31;5051472;28;20021;-41
2021/12/06 08:56:29;;;;;;;218.57;57.25;;;;;;;2.60;98.43;101352.72;5053144;28;20537;-41
2021/12/06 08:58:57;;;;;;;206.00;56.78;;;;;;;2.66;98.33;101344.28;5051608;28;20035;-42
2021/12/06 09:01:23;;;;;;;196.25;54.67;;;;;;;2.74;98.78;101349.88;5050664;28;20601;-42
2021/12/06 09:03:48;;;;;;;174.60;50.30;;;;;;;2.74;98.56;101338.34;5050782;28;20040;-42
2021/12/06 09:06:14;;;;;;;162.18;48.85;;;;;;;2.69;97.33;101336.09;5049779;28;20090;-40
2021/12/06 09:08:41;;;;;;;164.82;50.33;;;;;;;2.76;96.97;101345.25;5052211;28;20047;-42
2021/12/06 09:11:06;;;;;;;163.70;50.17;;;;;;;2.70;97.09;101336.91;5051172;28;20498;-41
2021/12/06 09:13:32;;;;;;;141.63;46.83;;;;;;;2.72;96.74;101341.16;5050291;28;20087;-42
2021/12/06 09:16:01;;;;;;;139.18;46.10;;;;;;;2.74;96.61;101339.22;5051808;28;20071;-41
2021/12/06 09:18:29;;;;;;;147.70;46.40;;;;;;;2.81;96.40;101337.75;5052119;28;20092;-42
2021/12/06 09:20:56;;;;;;;145.82;49.60;;;;;;;2.74;95.85;101354.31;5052130;28;20524;-42
2021/12/06 09:23:21;;;;;;;146.82;49.25;;;;;;;2.66;95.98;101362.91;5051071;28;20491;-42
2021/12/06 09:25:47;;;;;;;140.75;46.28;;;;;;;2.60;96.48;101374.81;5052568;28;20021;-42
2021/12/06 09:28:15;;;;;;;133.70;46.30;;;;;;;2.57;96.36;101371.56;5052104;28;20063;-42
2021/12/06 09:30:41;;;;;;;145.18;46.35;;;;;;;2.60;95.85;101381.94;5049921;28;20021;-41
2021/12/06 09:33:11;;;;;;;140.95;46.10;;;;;;;2.59;96.37;101369.63;5049821;28;20384;-41
2021/12/06 09:35:41;;;;;;;143.50;43.42;;;;;;;2.58;95.65;101366.13;5052001;28;20021;-41
2021/12/06 09:38:07;;;;;;;133.80;42.67;;;;;;;2.66;95.70;101357.59;5051896;28;20443;-41
2021/12/06 09:40:35;;;;;;;139.57;44.28;;;;;;;2.66;95.53;101352.28;5051764;28;20036;-41
2021/12/06 09:43:01;;;;;;;148.15;45.00;;;;;;;2.73;95.45;101357.94;5051751;28;20032;-41
2021/12/06 09:45:28;;;;;;;127.43;41.97;;;;;;;2.72;95.36;101373.03;5051806;28;20632;-41
2021/12/06 09:47:54;;;;;;;124.57;44.38;;;;;;;2.77;95.25;101354.94;5083922;28;20070;-43
2021/12/06 09:50:28;;;;;;;120.55;41.08;;;;;;;2.76;94.41;101355.88;5050854;28;20377;-42
2021/12/06 09:52:56;;;;;;;130.48;43.70;;;;;;;2.75;94.99;101356.84;5051129;28;20388;-41
2021/12/06 09:55:22;;;;;;;129.50;42.58;;;;;;;2.90;94.18;101369.91;5060781;28;20029;-41
2021/12/06 09:57:48;;;;;;;108.35;38.58;;;;;;;2.93;94.63;101367.03;5070397;28;20048;-41
2021/12/06 10:00:15;;;;;;;107.63;37.58;;;;;;;2.98;93.25;101362.22;5050752;28;20601;-41
2021/12/06 10:02:41;;;;;;;110.20;38.65;;;;;;;3.12;92.72;101353.97;5051688;28;20025;-41
2021/12/06 10:05:07;;;;;;;113.65;40.17;;;;;;;3.20;92.69;101346.25;5029702;28;20032;-41
2021/12/06 10:07:32;;;;;;;106.85;39.05;;;;;;;3.22;92.59;101343.47;5043184;28;20029;-41
2021/12/06 10:09:59;;;;;;;97.50;34.58;;;;;;;3.23;91.34;101338.00;5050723;28;20050;-42
2021/12/06 10:12:25;;;;;;;101.32;37.38;;;;;;;3.21;91.23;101342.63;5034152;28;20053;-41
2021/12/06 10:14:52;;;;;;;95.45;34.17;;;;;;;3.24;91.12;101337.06;5051025;28;20065;-41
2021/12/06 10:17:19;;;;;;;95.38;35.92;;;;;;;3.32;91.18;101324.94;5052064;28;20036;-41
2021/12/06 10:19:46;;;;;;;95.60;36.42;;;;;;;3.24;91.04;101310.47;5050428;28;20508;-41
2021/12/06 10:22:13;;;;;;;94.00;36.00;;;;;;;3.15;90.87;101305.88;5052046;28;20465;-41
2021/12/06 10:24:39;;;;;;;99.40;35.88;;;;;;;3.11;90.97;101299.13;5051509;28;20029;-41
2021/12/06 10:27:13;;;;;;;105.93;39.03;;;;;;;3.19;91.54;101285.22;5051441;28;20033;-44
2021/12/06 10:29:47;;;;;;;103.55;37.38;;;;;;;3.12;91.91;101279.53;5050753;28;20526;-41
2021/12/06 10:32:19;;;;;;;92.45;33.22;;;;;;;2.94;91.76;101275.66;5050276;28;20484;-41
2021/12/06 10:34:48;;;;;;;101.53;35.08;;;;;;;2.99;91.48;101268.19;5050402;28;20027;-41
2021/12/06 10:37:53;;;;;;;100.85;35.67;;;;;;;2.93;91.76;101266.00;5051122;28;20056;-40
2021/12/06 10:40:23;;;;;;;105.47;36.28;;;;;;;2.96;92.27;101263.09;5029280;28;20103;-41
2021/12/06 10:42:50;;;;;;;106.90;37.85;;;;;;;2.93;92.12;101258.88;5071731;28;20247;-41
2021/12/06 10:45:25;;;;;;;112.22;38.78;;;;;;;2.91;91.85;101254.66;5070534;28;20119;-42
2021/12/06 10:48:15;;;;;;;118.45;37.75;;;;;;;2.95;92.69;101251.63;5071781;28;20033;-42
2021/12/06 10:50:42;;;;;;;112.45;38.67;;;;;;;2.96;91.63;101241.84;5055901;28;20503;-41
2021/12/06 10:53:08;;;;;;;118.03;40.78;;;;;;;2.96;91.95;101236.53;5051250;28;20059;-41
2021/12/06 10:55:35;;;;;;;120.63;41.72;;;;;;;2.93;91.97;101248.25;5049711;28;20469;-41
2021/12/06 10:58:06;;;;;;;127.05;42.85;;;;;;;2.86;91.74;101234.56;5051079;28;20558;-41
2021/12/06 11:00:49;;;;;;;113.00;40.28;;;;;;;2.95;91.08;101233.03;5050964;28;20071;-42
2021/12/06 11:03:22;;;;;;;121.10;40.80;;;;;;;2.96;90.50;101217.91;5051202;28;20391;-41
2021/12/06 11:05:59;;;;;;;115.90;41.33;;;;;;;3.05;90.18;101209.16;5051206;28;20040;-41
2021/12/06 11:08:26;;;;;;;108.57;41.15;;;;;;;3.05;90.14;101206.50;5050296;28;20041;-42
2021/12/06 11:10:58;;;;;;;123.80;41.22;;;;;;;3.06;90.12;101200.25;5052206;28;20021;-40
2021/12/06 11:13:33;;;;;;;117.10;40.50;;;;;;;3.14;89.58;101199.63;5051217;28;20081;-41
2021/12/06 11:16:01;;;;;;;114.78;41.20;;;;;;;3.25;89.53;101186.28;5052218;28;20033;-41
2021/12/06 11:18:37;;;;;;;111.45;39.03;;;;;;;3.21;89.26;101184.84;5057745;28;20027;-41
2021/12/06 11:21:04;;;;;;;105.35;38.15;;;;;;;3.24;88.79;101169.47;5057199;28;20056;-40
2021/12/06 11:23:30;;;;;;;114.23;39.93;;;;;;;3.49;89.08;101173.59;5054159;28;20044;-41
2021/12/06 11:26:01;;;;;;;109.60;40.85;;;;;;;3.65;87.84;101165.19;5054065;28;20041;-41
2021/12/06 11:28:29;;;;;;;110.55;39.33;;;;;;;3.47;87.47;101167.56;5049086;28;20109;-40
2021/12/06 11:31:05;;;;;;;120.60;40.70;;;;;;;3.36;88.18;101169.44;5051748;28;20017;-42
2021/12/06 11:33:35;;;;;;;114.75;40.83;;;;;;;3.32;87.82;101163.53;5053717;28;20091;-41